createdAt,value
2019-06-20T00:00:52.517Z,21.90
2019-06-20T00:01:52.588Z,21.92
2019-06-20T00:02:50.803Z,21.97
2019-06-20T00:03:53.521Z,21.95
2019-06-20T00:04:51.310Z,21.92
2019-06-20T00:05:53.021Z,22.01
2019-06-20T00:06:52.624Z,21.90
2019-06-20T00:07:53.635Z,21.97
2019-06-20T00:08:53.557Z,21.97
2019-06-20T00:10:17.260Z,21.90
2019-06-20T00:10:54.056Z,21.94
2019-06-20T00:11:56.061Z,22.01
2019-06-20T00:13:00.371Z,21.95
2019-06-20T00:13:53.821Z,21.94
2019-06-20T00:15:01.479Z,21.88
2019-06-20T00:16:17.505Z,21.88
2019-06-20T00:16:55.057Z,21.91
2019-06-20T00:18:00.108Z,21.83
2019-06-20T00:18:57.615Z,21.94
2019-06-20T00:19:55.559Z,21.76
2019-06-20T00:21:02.062Z,21.76
2019-06-20T00:21:58.100Z,21.71
2019-06-20T00:22:56.123Z,21.72
2019-06-20T00:23:55.624Z,21.67
2019-06-20T00:24:54.729Z,21.67
2019-06-20T00:25:56.599Z,21.56
2019-06-20T00:27:07.209Z,21.54
2019-06-20T00:27:55.223Z,21.45
2019-06-20T00:28:55.427Z,21.53
2019-06-20T00:29:56.390Z,21.48
2019-06-20T00:30:57.566Z,21.51
2019-06-20T00:31:57.602Z,21.54
2019-06-20T00:32:58.093Z,21.48
2019-06-20T00:34:08.122Z,21.41
2019-06-20T00:34:58.620Z,21.39
2019-06-20T00:36:04.567Z,21.34
2019-06-20T00:37:20.088Z,21.32
2019-06-20T00:37:57.404Z,21.44
2019-06-20T00:38:57.513Z,21.29
2019-06-20T00:40:00.630Z,21.38
2019-06-20T00:40:59.520Z,21.36
2019-06-20T00:41:58.039Z,21.42
2019-06-20T00:43:15.878Z,21.34
2019-06-20T00:45:33.506Z,21.30
2019-06-20T00:46:31.543Z,21.27
2019-06-20T00:47:46.571Z,21.21
2019-06-20T00:48:32.017Z,21.13
2019-06-20T00:49:33.119Z,21.17
2019-06-20T00:50:31.420Z,21.17
2019-06-20T00:51:31.635Z,21.19
2019-06-20T00:52:31.855Z,21.09
2019-06-20T00:53:33.578Z,21.19
2019-06-20T00:54:57.074Z,21.13
2019-06-20T00:55:35.071Z,21.09
2019-06-20T00:56:35.614Z,21.17
2019-06-20T00:57:36.646Z,21.17
2019-06-20T00:58:35.558Z,21.19
2019-06-20T01:00:11.062Z,21.19
2019-06-20T01:00:33.370Z,21.09
2019-06-20T01:01:35.088Z,21.20
2019-06-20T01:03:10.576Z,21.26
2019-06-20T01:03:49.765Z,21.08
2019-06-20T01:04:34.175Z,21.16
2019-06-20T01:05:34.392Z,21.24
2019-06-20T01:06:36.579Z,21.19
2019-06-20T01:07:36.601Z,21.04
2019-06-20T01:09:01.639Z,21.09
2019-06-20T01:09:37.138Z,20.98
2019-06-20T01:10:37.076Z,21.02
2019-06-20T01:11:39.263Z,20.91
2019-06-20T01:12:35.750Z,20.84
2019-06-20T01:13:36.937Z,20.99
2019-06-20T01:14:59.167Z,20.95
2019-06-20T01:15:38.092Z,21.02
2019-06-20T01:16:38.591Z,21.14
2019-06-20T01:17:43.632Z,21.09
2019-06-20T01:18:40.619Z,21.02
2019-06-20T01:19:39.132Z,21.06
2019-06-20T01:20:41.087Z,21.09
2019-06-20T01:21:37.463Z,21.05
2019-06-20T01:22:41.579Z,21.05
2019-06-20T01:23:39.683Z,21.02
2019-06-20T01:24:41.576Z,21.04
2019-06-20T01:25:42.095Z,21.01
2019-06-20T01:26:46.076Z,21.06
2019-06-20T01:27:42.107Z,21.11
2019-06-20T01:28:38.611Z,21.04
2019-06-20T01:29:46.618Z,21.08
2019-06-20T01:30:39.966Z,21.11
2019-06-20T01:31:39.192Z,21.13
2019-06-20T01:32:43.077Z,21.16
2019-06-20T01:33:41.083Z,21.13
2019-06-20T01:34:39.813Z,21.13
2019-06-20T01:35:42.020Z,21.11
2019-06-20T01:36:44.543Z,20.96
2019-06-20T01:37:42.094Z,21.05
2019-06-20T01:38:42.103Z,20.99
2019-06-20T01:39:43.580Z,21.05
2019-06-20T01:40:42.590Z,21.06
2019-06-20T01:41:42.641Z,21.02
2019-06-20T01:42:43.130Z,21.04
2019-06-20T01:43:50.563Z,21.01
2019-06-20T01:45:06.088Z,20.96
2019-06-20T01:45:41.712Z,21.06
2019-06-20T01:46:43.582Z,20.91
2019-06-20T01:47:45.709Z,20.95
2019-06-20T01:48:44.130Z,20.95
2019-06-20T01:49:44.107Z,20.84
2019-06-20T01:50:43.560Z,20.95
2019-06-20T01:51:43.813Z,20.90
2019-06-20T01:52:44.580Z,20.84
2019-06-20T01:53:47.113Z,20.91
2019-06-20T01:54:43.335Z,20.91
2019-06-20T01:55:44.534Z,20.86
2019-06-20T01:56:44.647Z,20.90
2019-06-20T01:57:43.875Z,20.87
2019-06-20T01:58:47.620Z,20.79
2019-06-20T01:59:46.050Z,20.77
2019-06-20T02:00:46.100Z,20.77
2019-06-20T02:01:44.626Z,20.77
2019-06-20T02:02:49.181Z,20.72
2019-06-20T02:03:46.545Z,20.72
2019-06-20T02:04:47.088Z,20.74
2019-06-20T02:05:47.097Z,20.62
2019-06-20T02:06:46.461Z,20.71
2019-06-20T02:07:47.088Z,20.59
2019-06-20T02:08:53.626Z,20.53
2019-06-20T02:09:47.630Z,20.54
2019-06-20T02:10:50.534Z,20.43
2019-06-20T02:12:15.130Z,20.35
2019-06-20T05:06:37.573Z,21.27
2019-06-20T05:16:21.438Z,22.19
2019-06-20T05:17:42.341Z,22.09
2019-06-20T05:26:39.989Z,22.28
2019-06-20T05:27:15.605Z,22.34
2019-06-20T05:30:14.162Z,22.64
2019-06-20T05:30:47.444Z,22.46
2019-06-20T06:22:18.582Z,24.52
2019-06-20T06:23:29.017Z,24.63
2019-06-20T06:24:15.003Z,24.71
2019-06-20T06:25:11.015Z,25.10
2019-06-20T06:26:03.531Z,24.94
2019-06-20T06:27:25.279Z,24.60
2019-06-20T06:31:20.988Z,24.08
2019-06-20T06:32:48.312Z,24.47
2019-06-20T06:33:43.410Z,25.19
2019-06-20T06:34:21.778Z,25.31
2019-06-20T06:35:16.870Z,25.49
2019-06-20T06:36:21.972Z,25.62
2019-06-20T06:39:17.919Z,26.25
2019-06-20T06:39:50.276Z,26.40
2019-06-20T06:41:13.274Z,26.43
2019-06-20T06:41:55.261Z,26.35
2019-06-20T06:42:50.892Z,26.46
2019-06-20T06:43:51.810Z,26.44
2019-06-20T06:45:13.262Z,26.52
2019-06-20T06:45:58.504Z,26.25
2019-06-20T06:47:06.355Z,26.08
2019-06-20T06:47:53.342Z,25.28
2019-06-20T06:48:53.270Z,24.83
2019-06-20T06:49:52.919Z,24.19
2019-06-20T06:50:56.631Z,23.95
2019-06-20T06:51:56.281Z,23.77
2019-06-20T06:52:54.316Z,23.42
2019-06-20T06:57:22.403Z,23.35
2019-06-20T06:58:11.848Z,23.39
2019-06-20T06:59:08.510Z,23.40
2019-06-20T07:00:06.817Z,23.50
2019-06-20T07:01:13.563Z,23.60
2019-06-20T07:02:09.154Z,23.53
2019-06-20T07:03:20.138Z,23.43
2019-06-20T07:04:27.588Z,23.45
2019-06-20T07:07:08.956Z,24.56
2019-06-20T07:07:40.402Z,24.39
2019-06-20T07:08:54.475Z,24.26
2019-06-20T07:09:39.961Z,24.77
2019-06-20T07:10:40.402Z,25.13
2019-06-20T07:12:00.129Z,24.60
2019-06-20T07:12:40.946Z,25.09
2019-06-20T07:13:47.893Z,25.09
2019-06-20T07:14:42.413Z,24.77
2019-06-20T07:17:16.006Z,25.25
2019-06-20T07:18:12.606Z,25.94
2019-06-20T07:19:35.645Z,26.52
2019-06-20T07:20:15.136Z,26.46
2019-06-20T07:21:18.207Z,26.37
2019-06-20T07:22:28.170Z,26.46
2019-06-20T07:23:13.595Z,25.97
2019-06-20T07:24:18.329Z,25.57
2019-06-20T07:25:20.675Z,25.74
2019-06-20T07:26:16.206Z,25.32
2019-06-20T07:27:21.148Z,25.20
2019-06-20T07:28:19.607Z,24.87
2019-06-20T07:29:14.642Z,24.87
2019-06-20T07:30:29.673Z,24.77
2019-06-20T07:31:16.655Z,24.35
2019-06-20T07:32:30.168Z,24.16
2019-06-20T07:33:35.547Z,24.05
2019-06-20T07:34:31.508Z,23.65
2019-06-20T07:35:18.672Z,23.53
2019-06-20T07:36:20.680Z,23.27
2019-06-20T07:37:38.262Z,23.34
2019-06-20T07:38:22.243Z,23.35
2019-06-20T07:41:05.283Z,23.23
2019-06-20T07:42:21.506Z,23.32
2019-06-20T07:43:24.827Z,23.29
2019-06-20T07:44:10.276Z,23.20
2019-06-20T07:44:52.282Z,23.15
2019-06-20T07:46:12.132Z,23.07
2019-06-20T07:46:50.023Z,23.01
2019-06-20T07:48:12.250Z,22.90
2019-06-20T07:49:21.251Z,22.86
2019-06-20T07:49:52.773Z,22.75
2019-06-20T07:52:39.243Z,22.65
2019-06-20T07:53:46.731Z,22.65
2019-06-20T07:54:46.532Z,22.71
2019-06-20T07:57:33.135Z,22.53
2019-06-20T07:57:56.152Z,22.47
2019-06-20T07:58:59.173Z,22.43
2019-06-20T07:59:59.613Z,22.23
2019-06-20T08:00:59.672Z,22.20
2019-06-20T08:02:05.146Z,22.22
2019-06-20T08:03:09.135Z,22.31
2019-06-20T08:04:22.708Z,22.34
2019-06-20T08:05:00.389Z,22.35
2019-06-20T08:07:36.990Z,22.41
2019-06-20T08:08:51.011Z,22.31
2019-06-20T08:09:44.408Z,22.37
2019-06-20T08:12:11.439Z,22.69
2019-06-20T08:13:05.008Z,22.87
2019-06-20T08:14:02.984Z,23.35
2019-06-20T08:15:14.478Z,24.24
2019-06-20T08:16:03.596Z,25.05
2019-06-20T08:17:05.000Z,25.54
2019-06-20T08:18:05.025Z,26.12
2019-06-20T08:19:05.093Z,26.47
2019-06-20T08:20:02.789Z,26.73
2019-06-20T08:21:06.032Z,26.95
2019-06-20T08:22:02.022Z,27.39
2019-06-20T08:23:26.113Z,27.46
2019-06-20T08:24:06.958Z,27.41
2019-06-20T08:26:44.060Z,25.97
2019-06-20T08:27:43.721Z,26.36
2019-06-20T08:28:35.243Z,26.59
2019-06-20T08:29:36.916Z,26.80
2019-06-20T08:30:38.173Z,27.48
2019-06-20T08:31:35.834Z,27.71
2019-06-20T08:33:03.603Z,27.99
2019-06-20T08:33:39.905Z,28.16
2019-06-20T08:34:39.659Z,28.31
2019-06-20T08:35:36.674Z,27.41
2019-06-20T08:36:38.301Z,27.13
2019-06-20T08:37:38.735Z,26.94
2019-06-20T08:38:38.673Z,26.44
2019-06-20T08:39:37.357Z,25.94
2019-06-20T08:40:37.805Z,25.62
2019-06-20T08:42:04.298Z,25.24
2019-06-20T08:42:53.896Z,25.01
2019-06-20T08:43:40.307Z,25.01
2019-06-20T08:44:39.049Z,25.06
2019-06-20T08:45:42.038Z,25.20
2019-06-20T08:46:39.170Z,25.94
2019-06-20T08:47:38.538Z,26.36
2019-06-20T08:48:43.685Z,26.80
2019-06-20T08:49:42.175Z,27.26
2019-06-20T08:50:39.196Z,27.79
2019-06-20T08:52:03.424Z,27.98
2019-06-20T08:52:42.226Z,28.32
2019-06-20T08:54:05.356Z,28.07
2019-06-20T08:54:39.806Z,27.92
2019-06-20T08:55:41.777Z,27.74
2019-06-20T08:56:41.714Z,28.29
2019-06-20T08:57:41.379Z,28.32
2019-06-20T08:58:47.182Z,28.73
2019-06-20T08:59:44.190Z,28.35
2019-06-20T09:00:58.006Z,27.89
2019-06-20T09:01:54.749Z,27.82
2019-06-20T09:02:46.688Z,27.80
2019-06-20T09:03:46.225Z,28.14
2019-06-20T09:05:04.310Z,28.11
2019-06-20T09:05:44.719Z,27.98
2019-06-20T09:06:44.841Z,27.88
2019-06-20T09:08:06.755Z,27.48
2019-06-20T09:08:42.250Z,27.09
2019-06-20T09:09:59.824Z,26.79
2019-06-20T09:10:42.829Z,26.61
2019-06-20T09:12:06.590Z,27.02
2019-06-20T09:12:53.628Z,27.41
2019-06-20T09:13:43.157Z,28.01
2019-06-20T09:14:45.416Z,28.33
2019-06-20T09:17:52.928Z,29.20
2019-06-20T09:18:21.226Z,29.55
2019-06-20T09:19:25.278Z,29.74
2019-06-20T09:20:18.708Z,29.75
2019-06-20T09:21:25.657Z,29.53
2019-06-20T09:22:38.812Z,28.97
2019-06-20T09:23:20.681Z,28.44
2019-06-20T09:24:29.496Z,28.41
2019-06-20T09:25:19.378Z,28.70
2019-06-20T09:26:31.298Z,28.25
2019-06-20T09:27:19.790Z,27.84
2019-06-20T09:28:22.676Z,27.86
2019-06-20T09:29:25.292Z,27.94
2019-06-20T09:30:19.300Z,28.01
2019-06-20T09:31:26.202Z,28.29
2019-06-20T09:32:22.772Z,28.32
2019-06-20T09:33:21.503Z,28.17
2019-06-20T09:34:20.322Z,28.46
2019-06-20T09:35:25.354Z,28.60
2019-06-20T09:36:20.554Z,29.10
2019-06-20T09:37:42.494Z,29.43
2019-06-20T09:38:21.782Z,29.62
2019-06-20T09:39:46.883Z,29.94
2019-06-20T09:40:23.838Z,30.14
2019-06-20T09:41:52.733Z,30.21
2019-06-20T09:42:22.214Z,29.86
2019-06-20T09:43:37.327Z,29.60
2019-06-20T09:44:28.822Z,29.56
2019-06-20T09:45:25.202Z,29.53
2019-06-20T09:46:56.432Z,29.81
2019-06-20T09:47:29.200Z,29.71
2019-06-20T09:48:26.713Z,29.13
2019-06-20T09:49:25.698Z,28.60
2019-06-20T09:50:29.856Z,28.31
2019-06-20T09:51:24.374Z,27.80
2019-06-20T09:52:34.443Z,27.32
2019-06-20T09:53:38.279Z,27.33
2019-06-20T09:54:24.859Z,27.36
2019-06-20T09:55:35.716Z,27.53
2019-06-20T09:56:30.347Z,27.59
2019-06-20T09:57:40.306Z,27.70
2019-06-20T09:58:27.222Z,27.89
2019-06-20T09:59:28.190Z,27.54
2019-06-20T10:02:38.147Z,27.64
2019-06-20T10:02:59.163Z,27.42
2019-06-20T10:05:34.510Z,27.06
2019-06-20T10:06:48.605Z,27.23
2019-06-20T10:07:35.370Z,27.42
2019-06-20T10:08:36.482Z,27.38
2019-06-20T10:09:37.370Z,27.64
2019-06-20T10:10:36.989Z,27.74
2019-06-20T10:11:39.665Z,27.94
2019-06-20T10:12:55.864Z,28.68
2019-06-20T10:13:34.379Z,29.33
2019-06-20T10:14:37.943Z,29.75
2019-06-20T10:18:22.658Z,29.33
2019-06-20T10:19:30.389Z,29.22
2019-06-20T10:20:19.260Z,29.20
2019-06-20T10:21:08.608Z,29.11
2019-06-20T10:22:15.124Z,28.91
2019-06-20T10:23:08.639Z,29.31
2019-06-20T10:24:10.668Z,29.34
2019-06-20T10:25:07.741Z,29.53
2019-06-20T10:26:33.349Z,29.22
2019-06-20T10:29:00.507Z,28.62
2019-06-20T10:31:17.740Z,29.26
2019-06-20T10:33:50.835Z,29.63
2019-06-20T10:35:00.511Z,29.79
2019-06-20T10:35:45.840Z,29.53
2019-06-20T10:36:50.296Z,29.49
2019-06-20T10:37:48.366Z,29.00
2019-06-20T10:38:56.850Z,29.13
2019-06-20T10:39:46.134Z,29.01
2019-06-20T10:40:49.815Z,28.70
2019-06-20T10:41:48.474Z,28.32
2019-06-20T10:42:47.993Z,28.29
2019-06-20T10:43:47.503Z,28.96
2019-06-20T10:44:52.469Z,29.25
2019-06-20T10:46:10.457Z,29.77
2019-06-20T10:47:12.996Z,29.52
2019-06-20T10:48:13.989Z,29.08
2019-06-20T10:49:15.255Z,28.26
2019-06-20T10:56:35.344Z,26.44
2019-06-20T10:57:19.191Z,26.44
2019-06-20T10:58:50.675Z,26.44
2019-06-20T10:59:17.367Z,26.72
2019-06-20T11:00:31.861Z,26.55
2019-06-20T11:06:09.134Z,28.75
2019-06-20T11:07:01.945Z,29.00
2019-06-20T11:08:02.492Z,29.49
2019-06-20T11:09:01.357Z,29.72
2019-06-20T11:10:04.556Z,30.00
2019-06-20T11:12:45.773Z,29.86
2019-06-20T11:13:55.566Z,29.55
2019-06-20T11:14:56.315Z,29.20
2019-06-20T11:15:53.642Z,29.08
2019-06-20T11:18:20.736Z,29.66
2019-06-20T11:25:26.952Z,29.33
2019-06-20T11:26:19.412Z,29.19
2019-06-20T11:27:24.540Z,28.58
2019-06-20T11:28:41.418Z,27.92
2019-06-20T11:29:33.250Z,27.82
2019-06-20T11:30:53.012Z,27.67
2019-06-20T11:31:23.208Z,27.41
2019-06-20T11:32:44.237Z,27.19
2019-06-20T11:33:33.294Z,27.11
2019-06-20T11:34:42.910Z,27.04
2019-06-20T11:35:35.968Z,27.16
2019-06-20T11:36:26.771Z,27.32
2019-06-20T11:37:25.337Z,27.38
2019-06-20T11:38:25.122Z,27.42
2019-06-20T11:39:43.770Z,27.64
2019-06-20T11:40:48.760Z,27.58
2019-06-20T11:41:22.803Z,27.66
2019-06-20T11:42:46.871Z,27.91
2019-06-20T11:48:42.999Z,27.85
2019-06-20T11:49:08.212Z,27.85
2019-06-20T11:53:03.427Z,27.32
2019-06-20T11:56:58.462Z,27.32
2019-06-20T11:57:46.825Z,26.89
2019-06-20T12:03:55.856Z,27.04
2019-06-20T12:04:26.382Z,26.87
2019-06-20T12:05:44.771Z,26.96
2019-06-20T12:08:17.520Z,27.13
2019-06-20T12:08:54.210Z,27.21
2019-06-20T12:10:14.886Z,27.05
2019-06-20T12:12:22.948Z,26.57
2019-06-20T12:13:28.745Z,26.39
2019-06-20T12:15:51.781Z,26.31
2019-06-20T12:21:36.351Z,26.72
2019-06-20T12:22:09.154Z,26.64
2019-06-20T12:23:26.639Z,26.89
2019-06-20T13:22:22.104Z,26.95
2019-06-20T13:23:45.024Z,26.96
2019-06-20T13:26:09.530Z,26.98
2019-06-20T13:26:58.475Z,27.01
2019-06-20T13:27:53.976Z,26.98
2019-06-20T13:29:03.351Z,27.06
2019-06-20T13:29:54.522Z,27.17
2019-06-20T13:30:56.525Z,27.09
2019-06-20T13:32:09.124Z,27.10
2019-06-20T13:32:55.176Z,27.05
2019-06-20T13:34:16.518Z,27.21
2019-06-20T13:34:55.525Z,27.57
2019-06-20T13:36:09.596Z,27.82
2019-06-20T13:36:58.031Z,27.89
2019-06-20T13:37:57.696Z,27.61
2019-06-20T13:38:55.503Z,27.71
2019-06-20T13:39:57.477Z,27.66
2019-06-20T13:40:55.157Z,27.58
2019-06-20T13:42:00.517Z,27.35
2019-06-20T13:43:17.984Z,27.20
2019-06-20T13:43:57.992Z,27.21
2019-06-20T13:44:57.032Z,27.13
2019-06-20T13:45:57.488Z,27.19
2019-06-20T13:47:03.521Z,27.21
2019-06-20T13:47:57.521Z,27.16
2019-06-20T13:49:04.078Z,26.94
2019-06-20T13:50:00.018Z,26.96
2019-06-20T13:50:58.985Z,26.77
2019-06-20T13:51:58.717Z,26.67
2019-06-20T13:52:59.534Z,26.59
2019-06-20T13:54:00.556Z,26.62
2019-06-20T13:54:58.187Z,26.50
2019-06-20T13:55:57.823Z,26.59
2019-06-20T13:57:09.123Z,26.43
2019-06-20T13:57:59.538Z,26.42
2019-06-20T13:59:05.832Z,26.32
2019-06-20T14:00:00.983Z,26.43
2019-06-20T14:01:07.004Z,26.52
2019-06-20T14:02:14.024Z,26.73
2019-06-20T14:03:00.968Z,26.86
2019-06-20T14:05:34.928Z,27.13
2019-06-20T14:06:32.473Z,27.14
2019-06-20T14:07:55.909Z,27.17
2019-06-20T14:08:33.823Z,27.23
2019-06-20T14:09:32.218Z,27.28
2019-06-20T14:10:39.881Z,27.32
2019-06-20T14:11:35.871Z,27.31
2019-06-20T14:12:34.083Z,26.94
2019-06-20T14:13:36.494Z,27.04
2019-06-20T14:14:36.362Z,26.94
2019-06-20T14:15:33.811Z,26.81
2019-06-20T14:16:37.386Z,26.98
2019-06-20T14:17:49.887Z,26.96
2019-06-20T14:18:58.910Z,26.95
2019-06-20T14:19:49.468Z,27.09
2019-06-20T14:20:34.037Z,27.20
2019-06-20T14:21:38.037Z,27.23
2019-06-20T14:22:36.820Z,27.35
2019-06-20T14:23:41.237Z,27.41
2019-06-20T14:24:58.390Z,27.51
2019-06-20T14:25:51.710Z,27.24
2019-06-20T14:26:37.875Z,27.05
2019-06-20T14:27:35.846Z,27.06
2019-06-20T14:28:36.405Z,27.20
2019-06-20T14:29:58.384Z,27.17
2019-06-20T14:30:59.324Z,27.20
2019-06-20T14:31:39.348Z,27.32
2019-06-20T14:32:53.756Z,27.38
2019-06-20T14:33:36.472Z,27.42
2019-06-20T14:34:37.570Z,27.14
2019-06-20T14:35:54.665Z,26.87
2019-06-20T14:36:39.839Z,26.94
2019-06-20T14:37:43.460Z,26.89
2019-06-20T14:38:40.344Z,26.98
2019-06-20T14:40:05.381Z,26.96
2019-06-20T14:40:45.396Z,26.87
2019-06-20T14:41:46.434Z,26.89
2019-06-20T14:42:41.396Z,27.02
2019-06-20T14:43:40.887Z,27.10
2019-06-20T14:44:44.070Z,26.96
2019-06-20T14:45:39.853Z,27.04
2019-06-20T14:46:42.331Z,27.11
2019-06-20T14:47:44.431Z,27.29
2019-06-20T14:48:55.223Z,27.29
2019-06-20T14:49:40.825Z,27.29
2019-06-20T14:50:44.598Z,27.29
2019-06-20T14:52:03.366Z,27.01
2019-06-20T14:52:44.578Z,26.95
2019-06-20T14:53:43.920Z,26.84
2019-06-20T14:54:44.509Z,26.77
2019-06-20T14:55:44.304Z,26.52
2019-06-20T14:56:44.440Z,26.36
2019-06-20T14:57:44.611Z,26.36
2019-06-20T14:58:46.595Z,26.43
2019-06-20T14:59:46.436Z,26.29
2019-06-20T15:00:46.458Z,26.43
2019-06-20T15:01:53.836Z,26.32
2019-06-20T15:02:45.345Z,26.40
2019-06-20T15:03:45.567Z,26.25
2019-06-20T15:05:04.886Z,26.25
2019-06-20T15:05:58.415Z,26.17
2019-06-20T15:06:42.311Z,26.25
2019-06-20T15:07:45.067Z,26.28
2019-06-20T15:08:46.950Z,26.22
2019-06-20T15:09:44.431Z,26.08
2019-06-20T15:10:48.401Z,26.31
2019-06-20T15:11:51.263Z,26.15
2019-06-20T15:13:04.359Z,26.04
2019-06-20T15:13:45.857Z,26.17
2019-06-20T15:14:45.900Z,26.25
2019-06-20T15:15:46.477Z,26.11
2019-06-20T15:16:53.604Z,26.12
2019-06-20T15:17:50.357Z,26.21
2019-06-20T15:18:46.461Z,26.32
2019-06-20T15:20:16.490Z,26.40
2019-06-20T15:20:51.843Z,26.47
2019-06-20T15:21:48.610Z,26.47
2019-06-20T15:24:24.266Z,26.54
2019-06-20T15:25:22.310Z,26.44
2019-06-20T15:26:20.350Z,26.36
2019-06-20T15:27:42.317Z,26.52
2019-06-20T15:28:29.996Z,26.28
2019-06-20T15:29:26.102Z,26.25
2019-06-20T15:30:23.995Z,26.05
2019-06-20T15:31:23.815Z,26.12
2019-06-20T15:32:26.965Z,26.04
2019-06-20T15:33:21.029Z,25.93
2019-06-20T15:34:21.083Z,25.74
2019-06-20T15:35:21.872Z,25.65
2019-06-20T15:36:43.915Z,25.68
2019-06-20T15:37:22.828Z,25.67
2019-06-20T15:38:25.467Z,25.72
2019-06-20T15:39:23.861Z,25.69
2019-06-20T15:40:20.180Z,25.65
2019-06-20T15:41:24.396Z,25.62
2019-06-20T15:42:43.382Z,25.69
2019-06-20T15:43:24.362Z,25.75
2019-06-20T15:44:36.374Z,25.79
2019-06-20T15:45:22.320Z,25.65
2019-06-20T15:46:23.478Z,25.69
2019-06-20T15:47:24.325Z,25.56
2019-06-20T15:48:33.488Z,25.50
2019-06-20T15:49:26.356Z,25.42
2019-06-20T15:50:45.121Z,25.25
2019-06-20T15:51:23.892Z,25.38
2019-06-20T15:52:24.706Z,25.49
2019-06-20T15:53:24.335Z,25.31
2019-06-20T15:54:35.314Z,25.22
2019-06-20T15:55:23.643Z,25.16
2019-06-20T15:56:24.570Z,25.27
2019-06-20T15:57:25.813Z,25.37
2019-06-20T15:58:25.820Z,25.42
2019-06-20T15:59:23.830Z,25.47
2019-06-20T16:00:32.842Z,25.49
2019-06-20T16:01:39.384Z,25.22
2019-06-20T16:02:26.359Z,25.30
2019-06-20T16:03:40.286Z,25.12
2019-06-20T16:04:25.922Z,25.15
2019-06-20T16:05:25.321Z,25.15
2019-06-20T16:06:31.604Z,25.15
2019-06-20T16:07:45.590Z,25.17
2019-06-20T16:08:26.382Z,25.07
2019-06-20T16:09:24.978Z,25.02
2019-06-20T16:10:49.898Z,25.10
2019-06-20T16:11:39.869Z,25.02
2019-06-20T16:12:27.958Z,25.16
2019-06-20T16:13:41.420Z,25.10
2019-06-20T16:14:27.427Z,25.12
2019-06-20T16:15:33.866Z,24.98
2019-06-20T16:16:27.879Z,24.95
2019-06-20T16:17:27.870Z,24.91
2019-06-20T16:23:35.847Z,24.92
2019-06-20T16:24:34.873Z,24.82
2019-06-20T16:25:14.656Z,24.69
2019-06-20T16:26:15.591Z,24.57
2019-06-20T16:29:03.850Z,24.56
2019-06-20T16:30:14.022Z,24.52
2019-06-20T16:30:45.077Z,24.63
2019-06-20T16:31:45.304Z,24.53
2019-06-20T16:32:47.023Z,24.53
2019-06-20T16:34:10.623Z,24.52
2019-06-20T16:35:06.411Z,24.53
2019-06-20T16:37:18.378Z,24.37
2019-06-20T16:38:20.655Z,24.29
2019-06-20T16:39:29.375Z,24.16
2019-06-20T16:40:16.630Z,24.13
2019-06-20T17:32:19.643Z,20.20
2019-06-20T17:33:19.992Z,20.16
